createdAt,value
2023-02-03T00:04:17.890Z,90.32
2023-02-03T00:09:19.119Z,90.44
2023-02-03T00:14:20.376Z,90.05
2023-02-03T00:19:21.689Z,89.98
2023-02-03T00:24:23.931Z,89.27
2023-02-03T00:29:26.024Z,90.27
2023-02-03T00:34:27.330Z,90.21
2023-02-03T00:39:28.609Z,92.23
2023-02-03T00:44:29.851Z,92.43
2023-02-03T00:49:31.612Z,92.21
2023-02-03T00:54:33.837Z,92.69
2023-02-03T00:59:35.163Z,92.34
2023-02-03T01:04:36.418Z,91.57
2023-02-03T01:09:37.671Z,90.74
2023-02-03T01:14:38.939Z,91.17
2023-02-03T01:19:40.202Z,91.41
2023-02-03T01:24:41.493Z,91.22
2023-02-03T01:29:42.722Z,91.08
2023-02-03T01:34:44.027Z,91.89
2023-02-03T01:39:45.314Z,91.63
2023-02-03T01:44:47.565Z,90.84
2023-02-03T01:49:48.836Z,90.38
2023-02-03T01:54:50.047Z,89.76
2023-02-03T01:59:51.355Z,89.51
2023-02-03T02:04:52.719Z,90.19
2023-02-03T02:09:53.969Z,91.39
2023-02-03T02:14:55.195Z,91.52
2023-02-03T02:19:56.449Z,91.86
2023-02-03T02:24:57.839Z,90.93
2023-02-03T02:29:59.138Z,92.06
2023-02-03T02:35:00.499Z,92.32
2023-02-03T02:40:01.776Z,92.97
2023-02-03T02:45:02.979Z,92.68
2023-02-03T02:50:04.208Z,92.99
2023-02-03T02:55:05.477Z,92.53
2023-02-03T03:00:06.921Z,92.22
2023-02-03T03:05:08.181Z,92.86
2023-02-03T03:10:09.435Z,93.45
2023-02-03T03:15:10.709Z,92.69
2023-02-03T03:20:11.963Z,93.31
2023-02-03T03:25:13.242Z,92.46
2023-02-03T03:30:14.478Z,92.39
2023-02-03T03:35:15.821Z,92.46
2023-02-03T03:40:17.061Z,92.15
2023-02-03T03:45:18.279Z,91.65
2023-02-03T03:50:19.520Z,91.01
2023-02-03T03:55:20.744Z,90.58
2023-02-03T04:00:22.001Z,90.69
2023-02-03T04:05:23.303Z,90.19
2023-02-03T04:10:24.714Z,90.61
2023-02-03T04:15:26.020Z,91.92
2023-02-03T04:20:27.622Z,91.89
2023-02-03T04:25:29.143Z,92.12
2023-02-03T04:30:30.482Z,91.81
2023-02-03T04:35:31.825Z,90.89
2023-02-03T04:40:34.914Z,90.32
2023-02-03T04:45:36.420Z,90.14
2023-02-03T04:50:37.670Z,90.58
2023-02-03T04:55:38.914Z,91.04
2023-02-03T05:00:40.223Z,90.26
2023-02-03T05:05:41.431Z,90.29
2023-02-03T05:10:42.643Z,90.65
2023-02-03T05:15:43.918Z,90.78
2023-02-03T05:20:45.166Z,90.92
2023-02-03T05:25:46.537Z,90.12
2023-02-03T05:30:47.862Z,89.59
2023-02-03T05:35:49.139Z,89.37
2023-02-03T05:41:09.285Z,89.41
2023-02-03T05:46:10.616Z,89.36
2023-02-03T05:51:11.876Z,89.90
2023-02-03T05:56:13.135Z,90.54
2023-02-03T06:01:14.440Z,89.92
2023-02-03T06:06:15.761Z,90.18
2023-02-03T06:11:17.056Z,90.03
2023-02-03T06:16:18.427Z,91.01
2023-02-03T06:21:19.847Z,90.88
2023-02-03T06:26:21.164Z,91.62
2023-02-03T06:31:22.607Z,93.14
2023-02-03T06:36:24.023Z,92.36
2023-02-03T06:41:28.678Z,92.92
2023-02-03T06:46:30.958Z,92.53
2023-02-03T06:51:32.416Z,92.39
2023-02-03T06:56:33.703Z,92.05
2023-02-03T07:01:34.949Z,92.15
2023-02-03T07:06:36.213Z,91.81
2023-02-03T07:11:37.448Z,91.74
2023-02-03T07:16:38.740Z,91.26
2023-02-03T07:21:39.975Z,91.79
2023-02-03T07:26:41.341Z,91.04
2023-02-03T07:31:42.730Z,91.01
2023-02-03T07:36:44.083Z,90.90
2023-02-03T07:41:45.344Z,90.99
2023-02-03T07:46:46.640Z,89.57
2023-02-03T07:51:47.916Z,88.23
2023-02-03T07:56:49.149Z,88.09
2023-02-03T08:01:50.440Z,87.50
2023-02-03T08:06:51.795Z,87.70
2023-02-03T08:11:53.104Z,87.81
2023-02-03T08:16:54.347Z,86.98
2023-02-03T08:21:55.603Z,87.05
2023-02-03T08:26:56.857Z,86.97
2023-02-03T08:31:58.652Z,86.88
2023-02-03T08:36:59.985Z,86.74
2023-02-03T08:42:01.281Z,86.28
2023-02-03T08:47:02.519Z,86.09
2023-02-03T08:52:03.773Z,85.35
2023-02-03T08:57:05.058Z,86.50
2023-02-03T09:02:07.009Z,86.76
2023-02-03T09:07:08.395Z,85.96
2023-02-03T09:12:11.588Z,85.75
2023-02-03T09:17:12.881Z,86.52
2023-02-03T09:22:14.497Z,85.87
2023-02-03T09:27:15.763Z,85.79
2023-02-03T09:32:17.013Z,86.13
2023-02-03T09:37:18.312Z,85.85
2023-02-03T09:42:19.652Z,85.29
2023-02-03T09:47:20.871Z,84.80
2023-02-03T09:52:22.819Z,84.78
2023-02-03T09:57:24.058Z,85.10
2023-02-03T10:02:25.369Z,84.74
2023-02-03T10:07:26.610Z,85.69
2023-02-03T10:12:27.814Z,85.58
2023-02-03T10:17:30.313Z,84.99
2023-02-03T10:22:31.665Z,85.57
2023-02-03T10:27:32.910Z,85.79
2023-02-03T10:32:36.115Z,85.24
2023-02-03T10:37:37.442Z,85.34
2023-02-03T10:42:57.578Z,84.84
2023-02-03T10:47:58.851Z,84.84
2023-02-03T10:53:00.059Z,83.73
2023-02-03T10:58:01.342Z,83.78
2023-02-03T11:03:04.574Z,83.13
2023-02-03T11:08:06.064Z,84.10
2023-02-03T11:13:07.433Z,83.81
2023-02-03T11:18:08.725Z,83.44
2023-02-03T11:23:10.204Z,83.64
2023-02-03T11:28:11.677Z,83.74
2023-02-03T11:33:13.066Z,82.57
2023-02-03T11:38:14.320Z,84.04
2023-02-03T11:43:15.623Z,83.97
2023-02-03T11:48:16.845Z,83.33
2023-02-03T11:53:20.906Z,83.38
2023-02-03T11:58:24.308Z,83.80
2023-02-03T12:03:25.605Z,82.95
2023-02-03T12:08:26.879Z,82.51
2023-02-03T12:13:28.236Z,83.76
2023-02-03T12:18:29.533Z,84.46
2023-02-03T12:23:30.787Z,84.63
2023-02-03T12:28:34.066Z,84.34
2023-02-03T12:33:35.579Z,84.28
2023-02-03T12:38:36.831Z,83.54
2023-02-03T12:43:38.095Z,83.68
2023-02-03T12:48:39.296Z,82.39
2023-02-03T12:53:40.547Z,81.73
2023-02-03T12:58:41.938Z,81.95
2023-02-03T13:03:43.227Z,81.51
2023-02-03T13:08:44.472Z,81.07
2023-02-03T13:13:45.679Z,82.59
2023-02-03T13:18:46.886Z,83.05
2023-02-03T13:23:48.342Z,84.25
2023-02-03T13:28:50.816Z,83.94
2023-02-03T13:33:52.212Z,83.28
2023-02-03T13:38:53.425Z,82.31
2023-02-03T13:43:54.776Z,82.06
2023-02-03T13:48:56.017Z,82.06
2023-02-03T13:53:57.284Z,82.55
2023-02-03T13:58:58.482Z,83.07
2023-02-03T14:03:59.914Z,83.02
2023-02-03T14:09:01.232Z,83.21
2023-02-03T14:14:02.474Z,83.81
2023-02-03T14:19:03.749Z,85.31
2023-02-03T14:24:05.077Z,86.53
2023-02-03T14:29:06.341Z,87.87
2023-02-03T14:34:09.421Z,88.07
2023-02-03T14:39:10.626Z,88.76
2023-02-03T14:44:11.889Z,88.43
2023-02-03T14:49:13.215Z,88.57
2023-02-03T14:54:16.010Z,88.73
2023-02-03T14:59:17.868Z,89.48
2023-02-03T15:04:19.127Z,90.68
2023-02-03T15:09:22.713Z,90.80
2023-02-03T15:14:24.671Z,90.87
2023-02-03T15:19:25.966Z,90.89
2023-02-03T15:24:27.570Z,90.84
2023-02-03T15:29:28.927Z,91.16
2023-02-03T15:34:30.603Z,91.16
2023-02-03T15:39:31.815Z,90.55
2023-02-03T15:44:34.464Z,90.24
2023-02-03T15:49:35.746Z,90.54
2023-02-03T15:54:41.275Z,89.87
2023-02-03T15:59:43.182Z,89.99
2023-02-03T16:04:45.142Z,90.49
2023-02-03T16:09:46.398Z,89.85
2023-02-03T16:14:47.641Z,89.75
2023-02-03T16:19:51.366Z,89.53
2023-02-03T16:24:52.653Z,89.07
2023-02-03T16:30:12.673Z,89.60
2023-02-03T16:35:32.744Z,90.24
2023-02-03T16:40:53.098Z,90.34
2023-02-03T16:46:13.491Z,90.30
2023-02-03T16:51:15.893Z,90.27
2023-02-03T16:56:18.902Z,90.62
2023-02-03T17:01:20.127Z,90.63
2023-02-03T17:06:21.374Z,89.78
2023-02-03T17:11:23.326Z,88.90
2023-02-03T17:16:24.663Z,88.72
2023-02-03T17:21:25.937Z,89.03
2023-02-03T17:26:27.198Z,88.44
2023-02-03T17:31:28.594Z,87.98
2023-02-03T17:36:29.920Z,87.99
2023-02-03T17:57:27.920Z,87.50
2023-02-03T18:02:29.216Z,88.92
2023-02-03T18:07:30.494Z,89.83
2023-02-03T18:12:31.727Z,91.10
2023-02-03T18:17:32.996Z,91.08
2023-02-03T18:22:34.603Z,91.55
2023-02-03T18:27:35.894Z,92.08
2023-02-03T18:32:37.263Z,92.06
2023-02-03T18:37:40.578Z,91.40
2023-02-03T18:42:41.889Z,90.58
2023-02-03T18:47:43.103Z,89.65
2023-02-03T18:52:44.360Z,89.13
2023-02-03T18:57:46.831Z,88.52
2023-02-03T19:02:48.216Z,89.01
2023-02-03T19:07:49.511Z,88.32
2023-02-03T19:12:50.846Z,88.04
2023-02-03T19:17:52.114Z,88.39
2023-02-03T19:22:54.391Z,88.76
2023-02-03T19:27:55.989Z,89.10
2023-02-03T19:32:57.275Z,89.75
2023-02-03T19:37:58.467Z,89.74
2023-02-03T19:43:00.621Z,90.07
2023-02-03T19:48:01.872Z,89.85
2023-02-03T19:53:03.332Z,89.86
2023-02-03T19:58:04.678Z,90.84
2023-02-03T20:03:06.058Z,91.45
2023-02-03T20:08:07.366Z,92.26
2023-02-03T20:13:12.792Z,92.51
2023-02-03T20:18:14.105Z,92.69
2023-02-03T20:23:15.396Z,92.57
2023-02-03T20:28:17.137Z,92.08
2023-02-03T20:33:18.456Z,91.66
2023-02-03T20:38:19.799Z,91.36
2023-02-03T20:43:21.245Z,89.25
2023-02-03T20:48:23.830Z,87.68
2023-02-03T20:53:25.099Z,86.23
2023-02-03T20:58:26.368Z,85.64
2023-02-03T21:03:46.484Z,83.73
2023-02-03T21:08:47.766Z,82.34
2023-02-03T21:13:49.778Z,80.50
2023-02-03T21:18:51.161Z,79.35
2023-02-03T21:23:52.445Z,79.86
2023-02-03T21:28:53.719Z,79.51
2023-02-03T21:33:54.958Z,80.61
2023-02-03T21:38:56.724Z,80.17
2023-02-03T21:43:57.953Z,80.07
2023-02-03T21:48:59.231Z,79.38
2023-02-03T21:54:00.591Z,78.59
2023-02-03T21:59:02.124Z,78.08
2023-02-03T22:04:04.071Z,76.85
2023-02-03T22:09:05.363Z,76.61
2023-02-03T22:14:06.628Z,75.90
2023-02-03T22:19:07.856Z,75.72
2023-02-03T22:24:09.602Z,75.87
2023-02-03T22:29:10.874Z,76.27
2023-02-03T22:34:12.114Z,77.04
2023-02-03T22:39:13.384Z,76.80
2023-02-03T22:44:16.108Z,77.47
2023-02-03T22:49:17.370Z,78.01
2023-02-03T22:54:18.584Z,76.90
2023-02-03T22:59:19.830Z,75.88
2023-02-03T23:04:22.856Z,74.56
2023-02-03T23:09:24.151Z,74.08
2023-02-03T23:14:25.379Z,73.94
2023-02-03T23:19:27.194Z,73.99
2023-02-03T23:24:28.585Z,74.08
2023-02-03T23:29:29.874Z,74.20
2023-02-03T23:34:50.202Z,74.22
2023-02-03T23:39:51.448Z,72.17
2023-02-03T23:44:52.703Z,72.15
2023-02-03T23:49:54.068Z,73.22
2023-02-03T23:54:55.555Z,72.96
2023-02-03T23:59:56.823Z,73.63
